This is the latest recevied weather packets stored in our database for station/object OH1KK. If no packets are shown the sender has not sent any weather packets the latest 10 day(s).
| Time | Temp. | Humidity | Pressure | Rain* | Wind** | Luminosity | Snow |
|---|---|---|---|---|---|---|---|
| 1777908857 | 9.44° C | 45% | 989.8 hPa | 0 mm | - | - | - |
| 1777907087 | 12.22° C | 38% | 989.6 hPa | 0 mm | - | - | - |
| 1777905258 | 12.22° C | 36% | 989.4 hPa | 0 mm | - | - | - |
| 1777904343 | 12.22° C | 37% | 990 hPa | 0 mm | - | - | - |
| 1777901658 | 12.78° C | 34% | 990.5 hPa | 0 mm | - | - | - |
| 1777898975 | 12.22° C | 32% | 990.8 hPa | 0 mm | - | - | - |
| 1777898060 | 13.33° C | 30% | 991 hPa | 0 mm | - | - | - |
| 1777896291 | 12.78° C | 32% | 991.4 hPa | 0 mm | - | - | - |
| 1777895376 | 12.78° C | 29% | 991.6 hPa | 0 mm | - | - | - |
| 1777894460 | 12.22° C | 32% | 991.7 hPa | 0 mm | - | - | - |
| 1777893545 | 11.67° C | 31% | 991.9 hPa | 0 mm | - | - | - |
| 1777892691 | 11.67° C | 33% | 992.2 hPa | 0 mm | - | - | - |
| 1777891776 | 11.67° C | 33% | 992.5 hPa | 0 mm | - | - | - |
| 1777889945 | 11.67° C | 35% | 993 hPa | 0 mm | - | - | - |
| 1777889092 | 11.11° C | 34% | 993.3 hPa | 0 mm | - | - | - |
| 1777885492 | 10.56° C | 36% | 994.3 hPa | 0 mm | - | - | - |
| 1777884578 | 10° C | 37% | 994.6 hPa | 0 mm | - | - | - |
| 1777883663 | 9.44° C | 36% | 994.7 hPa | 0 mm | - | - | - |
| 1777882748 | 9.44° C | 37% | 995.2 hPa | 0 mm | - | - | - |
| 1777880978 | 8.89° C | 37% | 995.4 hPa | 0 mm | - | - | - |
| 1777878294 | 8.33° C | 42% | 996 hPa | 0 mm | - | - | - |
| 1777877379 | 7.78° C | 43% | 996.1 hPa | 0 mm | - | - | - |
| 1777876464 | 7.22° C | 45% | 996.4 hPa | 0 mm | - | - | - |
| 1777875549 | 6.67° C | 48% | 996.6 hPa | 0 mm | - | - | - |
| 1777874695 | 6.67° C | 48% | 997 hPa | 0 mm | - | - | - |
* Rain latest hour (hover to see other rain measurements)
** Current wind speed in m/s (hover to see current wind gust speed)